Time;durP1;ratioP1;P1;durP2;ratioP2;P2;SDS_P1;SDS_P2;PMS_P1;PMS_P2;Temp;Humidity;BMP_temperature;BMP_pressure;BME280_temperature;BME280_humidity;BME280_pressure;Samples;Min_cycle;Max_cycle;Signal;HPM_P1;HPM_P2
2023/04/11 00:00:39;;;;;;;14.80;8.00;;;;;;;8.20;69.80;101136.67;107702;1253;98026;-64
2023/04/11 00:03:13;;;;;;;11.60;7.40;;;;;;;8.16;69.53;101133.77;107663;1253;111471;-63
2023/04/11 00:05:42;;;;;;;12.70;8.30;;;;;;;8.11;69.44;101130.00;107601;1250;109366;-64
2023/04/11 00:08:10;;;;;;;18.70;7.90;;;;;;;8.06;69.72;101122.88;107584;1249;108121;-64
2023/04/11 00:10:39;;;;;;;13.60;7.90;;;;;;;8.00;69.83;101116.33;107643;1250;97912;-64
2023/04/11 00:13:13;;;;;;;12.20;7.00;;;;;;;8.01;70.27;101116.27;107720;1248;98253;-63
2023/04/11 00:15:42;;;;;;;14.40;8.00;;;;;;;7.98;70.80;101117.00;107742;1250;112234;-64
2023/04/11 00:18:11;;;;;;;10.80;7.30;;;;;;;7.96;70.80;101110.02;107662;1249;110183;-63
2023/04/11 00:20:40;;;;;;;11.20;7.70;;;;;;;7.95;71.14;101114.53;107925;1248;108647;-63
2023/04/11 00:23:08;;;;;;;12.90;6.90;;;;;;;7.93;72.24;101109.88;107931;1248;97813;-63
2023/04/11 00:25:37;;;;;;;10.80;6.60;;;;;;;7.89;71.89;101103.73;107802;1250;97844;-64
2023/04/11 00:28:06;;;;;;;9.80;6.20;;;;;;;7.84;72.59;101100.70;107684;1255;111606;-64
2023/04/11 00:30:34;;;;;;;11.90;6.20;;;;;;;7.75;72.74;101095.48;107628;1250;109898;-64
2023/04/11 00:33:03;;;;;;;10.20;6.70;;;;;;;7.70;72.48;101094.23;107714;1251;106845;-64
2023/04/11 00:35:33;;;;;;;15.80;7.50;;;;;;;7.67;72.22;101094.75;107701;1248;97885;-64
2023/04/11 00:38:05;;;;;;;12.60;6.40;;;;;;;7.65;72.59;101095.23;107717;1250;97810;-63
2023/04/11 00:40:34;;;;;;;12.40;7.10;;;;;;;7.61;72.13;101091.64;107693;1251;111689;-64
2023/04/11 00:43:04;;;;;;;10.80;7.30;;;;;;;7.63;72.33;101092.90;107654;1251;109542;-64
2023/04/11 00:45:32;;;;;;;11.70;6.30;;;;;;;7.67;73.09;101099.57;107608;1254;109443;-63
2023/04/11 00:48:01;;;;;;;11.10;6.60;;;;;;;7.70;72.64;101100.30;107682;1251;97794;-64
2023/04/11 00:50:33;;;;;;;11.10;6.70;;;;;;;7.76;72.10;101097.21;107605;1250;97948;-64
2023/04/11 00:53:02;;;;;;;9.60;6.60;;;;;;;7.82;71.90;101095.63;107630;1253;112809;-66
2023/04/11 00:55:31;;;;;;;11.70;6.70;;;;;;;7.91;71.86;101093.81;107673;1250;110345;-64
2023/04/11 00:58:01;;;;;;;10.00;6.50;;;;;;;7.95;71.90;101090.77;107733;1251;108041;-64
2023/04/11 01:00:34;;;;;;;13.30;6.90;;;;;;;7.99;71.66;101085.16;107607;1251;97814;-64
2023/04/11 01:03:03;;;;;;;14.10;7.10;;;;;;;8.04;71.59;101079.98;107682;1251;98418;-64
2023/04/11 01:05:34;;;;;;;12.30;7.60;;;;;;;8.09;71.46;101074.27;107732;1249;111241;-65
2023/04/11 01:08:03;;;;;;;11.40;7.10;;;;;;;8.08;71.49;101074.30;107663;1250;109730;-65
2023/04/11 01:10:35;;;;;;;11.80;6.00;;;;;;;8.01;71.35;101070.38;107698;1250;108316;-64
2023/04/11 01:13:04;;;;;;;10.40;7.00;;;;;;;7.89;71.57;101070.20;107653;1253;97797;-64
2023/04/11 01:15:32;;;;;;;10.10;6.40;;;;;;;7.75;72.29;101067.57;107646;1250;98354;-65
2023/04/11 01:18:04;;;;;;;10.30;6.70;;;;;;;7.66;72.27;101066.41;107706;1248;111094;-63
2023/04/11 01:20:33;;;;;;;9.60;6.40;;;;;;;7.65;72.46;101065.13;107643;1250;110152;-64
2023/04/11 01:23:02;;;;;;;10.80;6.70;;;;;;;7.69;72.55;101069.63;107594;1250;107655;-65
2023/04/11 01:25:30;;;;;;;9.70;6.60;;;;;;;7.71;72.55;101068.79;107708;1251;97961;-64
2023/04/11 01:27:59;;;;;;;12.80;6.30;;;;;;;7.74;72.70;101073.76;107654;1251;97676;-63
2023/04/11 01:30:28;;;;;;;10.70;6.30;;;;;;;7.72;72.42;101073.70;107676;1252;112997;-63
2023/04/11 01:32:56;;;;;;;13.20;7.80;;;;;;;7.72;72.82;101075.69;107661;1250;111271;-63
2023/04/11 01:35:25;;;;;;;12.10;7.50;;;;;;;7.66;72.28;101073.06;107644;1250;105713;-65
2023/04/11 01:37:53;;;;;;;11.60;7.30;;;;;;;7.66;72.36;101064.27;107571;1250;97823;-64
2023/04/11 01:40:22;;;;;;;12.60;7.70;;;;;;;7.65;72.28;101059.91;107612;1250;97791;-64
2023/04/11 01:42:52;;;;;;;11.10;7.20;;;;;;;7.64;72.13;101058.20;107617;1250;112350;-64
2023/04/11 01:45:21;;;;;;;10.20;7.90;;;;;;;7.67;72.23;101052.64;107664;1253;110882;-64
2023/04/11 01:47:51;;;;;;;13.90;7.80;;;;;;;7.71;71.50;101051.42;107740;1249;108718;-64
2023/04/11 01:50:20;;;;;;;9.60;6.90;;;;;;;7.74;71.50;101052.64;107732;1251;97857;-64
2023/04/11 01:52:49;;;;;;;13.20;6.50;;;;;;;7.75;71.41;101050.98;107759;1249;98344;-64
2023/04/11 01:55:17;;;;;;;11.90;6.60;;;;;;;7.68;71.40;101044.91;107758;1253;111882;-63
2023/04/11 01:57:46;;;;;;;13.30;7.90;;;;;;;7.56;72.16;101047.71;107806;1250;109102;-64
2023/04/11 02:00:15;;;;;;;11.50;7.30;;;;;;;7.44;72.93;101046.61;107713;1251;108359;-65
2023/04/11 02:02:46;;;;;;;11.00;7.60;;;;;;;7.37;72.82;101048.73;107762;1250;97823;-65
2023/04/11 02:05:20;;;;;;;11.20;7.30;;;;;;;7.33;73.18;101042.69;107644;1250;97885;-64
2023/04/11 02:07:49;;;;;;;10.50;6.90;;;;;;;7.26;73.77;101038.41;107693;1249;111873;-63
2023/04/11 02:10:18;;;;;;;15.00;7.60;;;;;;;7.17;73.94;101038.08;107723;1250;109510;-64
2023/04/11 02:12:46;;;;;;;13.20;8.50;;;;;;;7.13;73.93;101038.95;107705;1256;108713;-64
2023/04/11 02:15:15;;;;;;;14.50;7.20;;;;;;;7.13;73.90;101036.77;107853;1248;97856;-63
2023/04/11 02:17:44;;;;;;;12.00;7.00;;;;;;;7.14;74.13;101035.15;107596;1250;97844;-64
2023/04/11 02:20:14;;;;;;;11.90;6.90;;;;;;;7.12;74.05;101030.48;107849;1250;110912;-64
2023/04/11 02:22:42;;;;;;;13.30;7.50;;;;;;;7.12;74.78;101027.45;107705;1250;109881;-64
2023/04/11 02:25:10;;;;;;;11.80;7.00;;;;;;;7.13;74.88;101024.70;107708;1250;110317;-63
2023/04/11 02:27:39;;;;;;;11.80;7.10;;;;;;;7.17;74.68;101022.09;107637;1249;98368;-64
2023/04/11 02:30:08;;;;;;;14.00;7.20;;;;;;;7.21;74.94;101017.52;107638;1250;97944;-63
2023/04/11 02:32:37;;;;;;;11.30;7.70;;;;;;;7.21;75.23;101012.67;107596;1250;111763;-63
2023/04/11 02:35:07;;;;;;;12.50;6.90;;;;;;;7.19;75.99;101008.54;107562;1250;110004;-64
2023/04/11 02:37:35;;;;;;;9.40;6.60;;;;;;;7.10;76.32;101007.59;107770;1249;107709;-63
2023/04/11 02:40:05;;;;;;;15.90;7.10;;;;;;;7.03;76.47;101000.02;107689;1255;98545;-64
2023/04/11 02:42:33;;;;;;;10.20;6.60;;;;;;;7.04;76.50;100999.60;107727;1250;97687;-65
2023/04/11 02:45:03;;;;;;;15.00;7.60;;;;;;;7.12;76.03;101004.05;107713;1250;112151;-64
2023/04/11 02:47:31;;;;;;;15.80;8.20;;;;;;;7.23;75.94;100996.86;107708;1250;110140;-63
2023/04/11 02:50:05;;;;;;;18.90;8.20;;;;;;;7.29;75.65;100994.27;107731;1251;108731;-64
2023/04/11 02:52:40;;;;;;;11.60;7.70;;;;;;;7.31;75.65;100994.89;107573;1250;97820;-64
2023/04/11 02:55:10;;;;;;;14.60;7.40;;;;;;;7.35;75.71;100989.03;107580;1250;97819;-64
2023/04/11 02:57:39;;;;;;;18.80;7.80;;;;;;;7.40;75.39;100989.40;107688;1250;111354;-64
2023/04/11 03:00:10;;;;;;;14.30;7.60;;;;;;;7.37;75.41;100984.09;107715;1251;109639;-63
2023/04/11 03:02:49;;;;;;;12.10;7.40;;;;;;;7.34;75.67;100984.65;107675;1251;108166;-64
2023/04/11 03:05:21;;;;;;;11.40;6.90;;;;;;;7.27;75.60;100980.04;107544;1250;97797;-64
2023/04/11 03:07:52;;;;;;;15.20;8.00;;;;;;;7.26;75.48;100985.45;107543;1250;97704;-65
2023/04/11 03:10:22;;;;;;;16.60;8.10;;;;;;;7.27;75.73;100981.61;107545;1250;112358;-63
2023/04/11 03:12:51;;;;;;;15.40;7.80;;;;;;;7.31;75.66;100985.23;107590;1250;109297;-64
2023/04/11 03:15:20;;;;;;;13.00;7.80;;;;;;;7.35;75.59;100983.85;107607;1250;107157;-64
2023/04/11 03:17:48;;;;;;;11.40;7.40;;;;;;;7.39;75.31;100977.23;107649;1250;97759;-63
2023/04/11 03:20:18;;;;;;;10.30;7.20;;;;;;;7.43;75.02;100975.35;107979;1248;97931;-63
2023/04/11 03:22:49;;;;;;;12.50;7.60;;;;;;;7.46;75.10;100967.39;107731;1250;111251;-64
2023/04/11 03:25:18;;;;;;;21.60;13.30;;;;;;;7.49;75.00;100966.30;107679;1250;110476;-64
2023/04/11 03:27:51;;;;;;;17.40;8.30;;;;;;;7.51;75.01;100963.98;107683;1250;108056;-64
2023/04/11 03:30:19;;;;;;;11.30;7.30;;;;;;;7.49;74.96;100963.45;107698;1251;97822;-64
2023/04/11 03:32:48;;;;;;;14.50;8.40;;;;;;;7.42;74.82;100956.61;107673;1250;97838;-65
2023/04/11 03:35:19;;;;;;;15.20;9.00;;;;;;;7.40;74.84;100953.71;107729;1250;112518;-64
2023/04/11 03:37:49;;;;;;;18.60;9.30;;;;;;;7.32;74.78;100951.84;107769;1251;110149;-64
2023/04/11 03:40:18;;;;;;;14.60;8.50;;;;;;;7.28;74.80;100955.63;107730;1249;108169;-64
2023/04/11 03:42:55;;;;;;;18.90;9.60;;;;;;;7.25;75.38;100956.42;107879;1248;97799;-64
2023/04/11 03:45:27;;;;;;;21.40;11.70;;;;;;;7.20;75.33;100956.95;107903;1248;97790;-65
2023/04/11 03:47:59;;;;;;;15.80;8.90;;;;;;;7.16;75.32;100961.81;107626;1250;111880;-64
2023/04/11 03:50:33;;;;;;;15.70;9.10;;;;;;;7.15;75.36;100964.59;107790;1250;109417;-65
2023/04/11 03:53:02;;;;;;;17.40;10.80;;;;;;;7.15;75.17;100961.55;107668;1250;107984;-64
2023/04/11 03:55:31;;;;;;;20.50;11.00;;;;;;;7.18;75.14;100956.92;107746;1251;97810;-64
2023/04/11 03:58:01;;;;;;;15.30;10.10;;;;;;;7.19;75.44;100958.41;107683;1250;97792;-64
2023/04/11 04:00:35;;;;;;;16.90;10.00;;;;;;;7.21;75.65;100956.33;107695;1251;111341;-64
2023/04/11 04:03:06;;;;;;;19.90;10.80;;;;;;;7.19;76.06;100957.16;107784;1251;108482;-64
2023/04/11 04:05:37;;;;;;;14.00;9.40;;;;;;;7.15;76.27;100952.84;107733;1250;107339;-63
2023/04/11 04:08:06;;;;;;;17.20;9.50;;;;;;;7.14;76.03;100953.84;107583;1250;97827;-63
2023/04/11 04:10:46;;;;;;;12.40;9.60;;;;;;;7.16;76.35;100951.69;107581;1250;97883;-63
2023/04/11 04:13:15;;;;;;;15.50;10.40;;;;;;;7.21;76.53;100945.11;107683;1254;111183;-63
2023/04/11 04:15:50;;;;;;;15.50;8.70;;;;;;;7.24;77.53;100943.65;107613;1250;109188;-63
2023/04/11 04:18:22;;;;;;;14.10;8.80;;;;;;;7.19;77.80;100939.67;107632;1250;107526;-63
2023/04/11 04:20:51;;;;;;;20.30;8.80;;;;;;;7.19;77.83;100933.80;107573;1250;98474;-64
2023/04/11 04:23:22;;;;;;;16.00;9.10;;;;;;;7.25;77.70;100941.45;107912;1249;98329;-63
2023/04/11 04:26:23;;;;;;;25.20;9.90;;;;;;;7.28;77.98;100937.42;107529;1250;112116;-63
2023/04/11 04:29:18;;;;;;;18.30;9.70;;;;;;;7.32;77.63;100938.42;107494;1250;109626;-63
2023/04/11 04:31:56;;;;;;;16.30;9.20;;;;;;;7.39;77.78;100938.33;107727;1250;107995;-62
2023/04/11 04:34:48;;;;;;;18.60;8.20;;;;;;;7.43;77.61;100933.88;107632;1250;97880;-64
2023/04/11 04:37:24;;;;;;;19.10;10.00;;;;;;;7.43;77.44;100936.91;107935;1248;97694;-66
2023/04/11 04:40:10;;;;;;;15.70;9.50;;;;;;;7.45;77.67;100939.65;107870;1250;111362;-64
2023/04/11 04:42:56;;;;;;;24.20;9.90;;;;;;;7.37;77.85;100936.83;107841;1249;109815;-64
2023/04/11 04:45:35;;;;;;;15.90;8.80;;;;;;;7.39;77.65;100935.48;107905;1248;108780;-65
2023/04/11 04:48:04;;;;;;;17.80;10.40;;;;;;;7.45;77.61;100932.65;107577;1253;97916;-65
2023/04/11 04:50:33;;;;;;;12.70;9.10;;;;;;;7.55;77.75;100931.58;107704;1250;97845;-65
2023/04/11 04:53:01;;;;;;;14.90;9.10;;;;;;;7.64;77.60;100928.25;107745;1249;111808;-63
2023/04/11 04:55:30;;;;;;;15.80;9.90;;;;;;;7.74;76.99;100930.20;107675;1250;108572;-64
2023/04/11 04:57:59;;;;;;;21.80;10.00;;;;;;;7.80;77.10;100928.70;107830;1248;108458;-64
2023/04/11 05:00:27;;;;;;;19.00;10.60;;;;;;;7.81;76.58;100926.29;107534;1250;97968;-64
2023/04/11 05:02:59;;;;;;;19.60;11.40;;;;;;;7.86;76.94;100926.48;107580;1250;97928;-64
2023/04/11 05:05:31;;;;;;;16.00;8.40;;;;;;;7.89;76.68;100922.86;107774;1251;111949;-65
2023/04/11 05:08:00;;;;;;;14.60;9.00;;;;;;;7.93;77.12;100920.41;107697;1250;109809;-64
2023/04/11 05:10:30;;;;;;;12.80;8.30;;;;;;;7.97;77.16;100915.08;107590;1250;107820;-66
2023/04/11 05:12:59;;;;;;;15.80;8.60;;;;;;;7.97;77.39;100912.77;107567;1250;97799;-65
2023/04/11 05:15:28;;;;;;;14.10;9.10;;;;;;;7.95;77.70;100916.13;107732;1249;98328;-65
2023/04/11 05:17:56;;;;;;;12.70;8.40;;;;;;;7.97;77.72;100914.41;107683;1249;112901;-64
2023/04/11 05:20:28;;;;;;;17.00;9.30;;;;;;;7.99;78.03;100917.07;107688;1250;110168;-64
2023/04/11 05:22:57;;;;;;;20.40;9.20;;;;;;;8.04;77.91;100909.93;107579;1253;107070;-65
2023/04/11 05:25:26;;;;;;;19.60;10.40;;;;;;;8.10;78.15;100906.77;107591;1251;97924;-63
2023/04/11 05:27:55;;;;;;;15.50;10.50;;;;;;;8.16;77.81;100906.86;107711;1248;97782;-64
2023/04/11 05:30:24;;;;;;;15.00;9.70;;;;;;;8.25;77.54;100897.84;107841;1250;110904;-63
2023/04/11 05:32:54;;;;;;;16.10;9.10;;;;;;;8.27;77.39;100893.39;107721;1250;110127;-64
2023/04/11 05:35:23;;;;;;;16.40;10.90;;;;;;;8.26;76.99;100893.58;107641;1250;108647;-63
2023/04/11 05:37:53;;;;;;;17.40;10.20;;;;;;;8.35;76.93;100896.55;107595;1250;97814;-64
2023/04/11 05:40:22;;;;;;;14.70;9.80;;;;;;;8.37;76.86;100894.91;107636;1250;98354;-64
2023/04/11 05:42:51;;;;;;;15.00;10.10;;;;;;;8.43;76.67;100894.13;107581;1253;111866;-64
2023/04/11 05:45:19;;;;;;;18.20;10.00;;;;;;;8.54;76.62;100895.05;107634;1251;109826;-64
2023/04/11 05:47:49;;;;;;;22.50;10.40;;;;;;;8.67;76.45;100889.96;107681;1253;107541;-64
2023/04/11 05:50:20;;;;;;;22.20;9.70;;;;;;;8.82;76.10;100889.46;107506;1253;97851;-64
2023/04/11 05:52:49;;;;;;;20.30;11.10;;;;;;;8.89;75.47;100881.41;107641;1249;97777;-64
2023/04/11 05:55:24;;;;;;;23.80;14.60;;;;;;;9.01;75.54;100875.48;107643;1250;112252;-65
2023/04/11 05:57:55;;;;;;;16.30;9.80;;;;;;;9.17;75.38;100872.55;107597;1249;110549;-65
2023/04/11 06:00:25;;;;;;;14.60;10.10;;;;;;;9.28;74.73;100866.33;107635;1251;108641;-64
2023/04/11 06:02:53;;;;;;;18.60;11.30;;;;;;;9.36;74.48;100859.20;107554;1250;97837;-64
2023/04/11 06:05:24;;;;;;;15.60;10.10;;;;;;;9.44;74.27;100854.67;107714;1250;97802;-64
2023/04/11 06:07:52;;;;;;;17.90;10.20;;;;;;;9.46;73.73;100852.53;107816;1249;110848;-63
2023/04/11 06:10:21;;;;;;;17.10;9.80;;;;;;;9.45;73.60;100848.69;107825;1253;109961;-64
2023/04/11 06:12:49;;;;;;;15.70;10.50;;;;;;;9.45;73.54;100847.05;107611;1253;108135;-64
2023/04/11 06:15:19;;;;;;;20.40;10.50;;;;;;;9.50;73.48;100844.34;107582;1250;97862;-65
2023/04/11 06:17:48;;;;;;;15.00;9.80;;;;;;;9.53;73.42;100840.85;107675;1250;97940;-64
2023/04/11 06:20:17;;;;;;;17.10;9.40;;;;;;;9.59;73.44;100841.78;107935;1249;111289;-64
2023/04/11 06:22:50;;;;;;;17.10;8.60;;;;;;;9.65;73.15;100841.45;107931;1248;110129;-64
2023/04/11 06:25:20;;;;;;;17.20;9.70;;;;;;;9.79;73.10;100841.34;107760;1248;107618;-64
2023/04/11 06:27:49;;;;;;;15.80;9.10;;;;;;;9.88;72.58;100842.38;107732;1251;97817;-65
2023/04/11 06:30:18;;;;;;;18.90;9.00;;;;;;;9.95;72.31;100838.56;107623;1250;97810;-65
2023/04/11 06:32:47;;;;;;;19.50;9.70;;;;;;;10.01;71.83;100836.11;107730;1248;110937;-64
2023/04/11 06:35:16;;;;;;;22.90;10.80;;;;;;;10.12;71.94;100836.58;107929;1248;109781;-63
2023/04/11 06:37:45;;;;;;;16.60;9.30;;;;;;;10.23;71.30;100837.85;107919;1248;109728;-65
2023/04/11 06:40:13;;;;;;;15.70;8.80;;;;;;;10.36;71.03;100830.10;107882;1248;97821;-65
2023/04/11 06:42:42;;;;;;;27.00;9.80;;;;;;;10.47;70.55;100829.70;107917;1252;97704;-64
2023/04/11 06:45:11;;;;;;;15.40;10.30;;;;;;;10.54;70.18;100826.39;107912;1248;111196;-67
2023/04/11 06:47:40;;;;;;;13.70;8.90;;;;;;;10.64;70.18;100828.02;107762;1248;110234;-66
2023/04/11 06:50:09;;;;;;;17.80;9.90;;;;;;;10.72;69.68;100828.92;107923;1253;107239;-65
2023/04/11 06:52:37;;;;;;;16.70;9.20;;;;;;;10.81;69.55;100830.33;107821;1251;97883;-64
2023/04/11 06:55:07;;;;;;;18.00;11.00;;;;;;;10.95;69.39;100829.82;107634;1251;97695;-64
2023/04/11 06:57:35;;;;;;;16.50;9.50;;;;;;;10.99;68.82;100819.58;107713;1251;110964;-67
2023/04/11 07:00:06;;;;;;;16.50;9.70;;;;;;;11.03;68.49;100817.23;107710;1253;109337;-65
2023/04/11 07:02:35;;;;;;;14.60;9.10;;;;;;;11.11;68.25;100820.69;107673;1250;108611;-63
2023/04/11 07:05:09;;;;;;;14.20;9.20;;;;;;;11.14;67.56;100816.79;107574;1250;97832;-67
2023/04/11 07:07:41;;;;;;;17.10;9.80;;;;;;;11.18;67.40;100812.66;107763;1248;97899;-66
2023/04/11 07:10:09;;;;;;;20.40;10.60;;;;;;;11.23;67.19;100811.32;107924;1249;111793;-64
2023/04/11 07:12:38;;;;;;;16.80;9.80;;;;;;;11.31;67.01;100805.58;107807;1250;109816;-64
2023/04/11 07:15:07;;;;;;;21.00;9.80;;;;;;;11.41;66.86;100804.30;107620;1249;108273;-65
2023/04/11 07:17:36;;;;;;;18.10;9.70;;;;;;;11.48;66.45;100803.64;107609;1251;97807;-63
2023/04/11 07:20:08;;;;;;;13.90;9.10;;;;;;;11.55;66.49;100802.98;107611;1251;97777;-65
2023/04/11 07:22:36;;;;;;;15.10;9.10;;;;;;;11.62;66.18;100795.92;107582;1250;111479;-65
2023/04/11 07:25:05;;;;;;;18.60;10.30;;;;;;;11.69;66.09;100795.77;107581;1250;109551;-63
2023/04/11 07:27:35;;;;;;;13.10;9.40;;;;;;;11.80;65.97;100787.62;107691;1254;108760;-65
2023/04/11 07:30:04;;;;;;;18.80;8.60;;;;;;;11.85;65.22;100783.36;107756;1248;97794;-64
2023/04/11 07:32:33;;;;;;;20.90;8.50;;;;;;;11.94;64.93;100784.52;107913;1251;97811;-65
2023/04/11 07:35:06;;;;;;;14.50;8.70;;;;;;;12.00;64.56;100776.40;107678;1251;111716;-64
2023/04/11 07:37:35;;;;;;;16.40;9.20;;;;;;;12.08;64.39;100773.48;107695;1248;110237;-63
2023/04/11 07:40:10;;;;;;;17.20;8.60;;;;;;;12.16;64.18;100771.65;107922;1248;109727;-65
2023/04/11 07:42:40;;;;;;;15.80;9.30;;;;;;;12.23;64.09;100769.42;107900;1248;97872;-64
2023/04/11 07:45:08;;;;;;;18.00;9.50;;;;;;;12.24;63.39;100760.83;107956;1248;97694;-63
2023/04/11 07:47:37;;;;;;;17.70;9.70;;;;;;;12.22;63.29;100761.42;107927;1249;112195;-65
2023/04/11 07:50:06;;;;;;;16.90;9.80;;;;;;;12.19;63.20;100754.66;107888;1251;110691;-63
2023/04/11 07:52:34;;;;;;;19.50;9.60;;;;;;;12.15;63.11;100757.55;107831;1251;107669;-63
2023/04/11 07:55:04;;;;;;;15.30;9.50;;;;;;;12.13;63.10;100760.31;107526;1250;97822;-66
2023/04/11 07:57:32;;;;;;;21.20;11.00;;;;;;;12.06;63.15;100765.09;107654;1250;97781;-68
2023/04/11 08:00:03;;;;;;;19.30;10.30;;;;;;;11.98;63.53;100762.64;106806;1250;1292690;-65
2023/04/11 08:02:39;;;;;;;13.20;9.90;;;;;;;11.94;63.85;100764.21;107529;1250;109936;-64
2023/04/11 08:05:09;;;;;;;16.00;9.80;;;;;;;11.92;63.96;100766.55;107729;1250;107504;-65
2023/04/11 08:07:37;;;;;;;17.00;10.20;;;;;;;11.91;64.14;100764.67;107537;1250;97718;-65
2023/04/11 08:10:07;;;;;;;26.40;11.80;;;;;;;11.90;64.50;100755.39;107576;1250;97825;-65
2023/04/11 08:12:36;;;;;;;18.60;11.00;;;;;;;11.88;64.83;100746.71;107653;1251;112298;-64
2023/04/11 08:15:05;;;;;;;21.00;11.90;;;;;;;11.86;64.99;100742.30;107932;1248;109663;-63
2023/04/11 08:17:37;;;;;;;20.70;11.40;;;;;;;11.83;65.35;100740.99;107855;1251;107683;-66
2023/04/11 08:20:08;;;;;;;14.90;9.80;;;;;;;11.83;65.53;100731.80;107548;1250;97784;-64
2023/04/11 08:22:38;;;;;;;19.10;10.20;;;;;;;11.83;65.75;100719.19;107602;1251;99752;-65
2023/04/11 08:25:08;;;;;;;15.90;10.20;;;;;;;11.87;65.70;100714.58;107687;1251;110405;-65
2023/04/11 08:27:37;;;;;;;18.80;10.60;;;;;;;11.86;66.18;100703.27;107699;1253;109963;-64
2023/04/11 08:30:07;;;;;;;16.50;11.20;;;;;;;11.84;66.14;100694.73;107777;1251;108782;-64
2023/04/11 08:32:36;;;;;;;18.70;10.10;;;;;;;11.87;66.36;100685.27;107611;1251;97880;-64
2023/04/11 08:35:06;;;;;;;24.90;10.50;;;;;;;11.95;66.57;100681.77;107627;1250;98376;-64
2023/04/11 08:37:34;;;;;;;19.20;10.10;;;;;;;12.06;66.59;100682.42;107643;1251;111381;-64
2023/04/11 08:40:05;;;;;;;18.40;8.80;;;;;;;12.16;65.93;100682.70;107670;1250;110756;-66
2023/04/11 08:42:35;;;;;;;20.70;10.00;;;;;;;12.26;64.95;100682.51;107651;1251;107992;-64
2023/04/11 08:45:07;;;;;;;16.00;9.00;;;;;;;12.32;63.81;100685.51;107749;1251;97720;-65
2023/04/11 08:47:36;;;;;;;18.50;9.50;;;;;;;12.37;63.34;100676.00;107936;1251;97716;-64
2023/04/11 08:50:05;;;;;;;17.90;8.80;;;;;;;12.45;62.92;100669.08;107924;1253;111212;-64
2023/04/11 08:52:36;;;;;;;24.00;9.70;;;;;;;12.54;62.14;100667.16;107929;1253;109889;-65
2023/04/11 08:55:05;;;;;;;23.40;9.60;;;;;;;12.64;61.62;100665.09;107926;1252;108927;-64
2023/04/11 08:57:36;;;;;;;16.80;9.30;;;;;;;12.73;61.76;100668.56;107849;1250;97799;-64
2023/04/11 09:00:09;;;;;;;19.10;9.80;;;;;;;12.81;60.56;100666.66;107584;1250;98331;-65
2023/04/11 09:03:00;;;;;;;17.70;10.10;;;;;;;12.85;60.20;100665.17;107590;1251;111474;-65
2023/04/11 09:05:40;;;;;;;17.60;9.50;;;;;;;12.88;59.41;100663.82;107665;1253;108996;-64
2023/04/11 09:08:16;;;;;;;24.80;10.20;;;;;;;12.90;59.02;100662.70;107683;1251;108080;-65
2023/04/11 09:10:45;;;;;;;17.10;9.20;;;;;;;12.94;58.79;100660.55;107941;1249;97952;-63
2023/04/11 09:13:25;;;;;;;17.10;8.40;;;;;;;12.95;59.30;100656.44;107710;1251;97829;-64
2023/04/11 09:16:12;;;;;;;13.00;9.10;;;;;;;13.01;59.37;100650.08;107704;1251;112234;-64
2023/04/11 09:18:45;;;;;;;15.30;8.70;;;;;;;13.02;59.61;100655.92;107632;1250;109033;-64
2023/04/11 09:21:15;;;;;;;14.00;8.10;;;;;;;12.96;59.81;100664.08;107676;1251;107786;-63
2023/04/11 09:23:44;;;;;;;13.10;8.20;;;;;;;12.85;60.37;100665.71;107650;1253;97771;-64
2023/04/11 09:26:25;;;;;;;20.30;7.30;;;;;;;12.69;60.77;100661.01;107632;1251;98347;-64
2023/04/11 09:28:53;;;;;;;20.20;10.80;;;;;;;12.61;60.98;100657.96;107794;1250;110746;-65
2023/04/11 09:31:40;;;;;;;13.70;6.50;;;;;;;12.60;61.75;100652.03;107938;1251;110158;-66
2023/04/11 09:34:11;;;;;;;14.10;6.30;;;;;;;12.48;62.16;100653.67;107927;1253;107750;-64
2023/04/11 09:36:39;;;;;;;10.70;5.80;;;;;;;12.34;63.02;100650.60;107924;1253;97672;-63
2023/04/11 09:39:18;;;;;;;14.50;6.80;;;;;;;12.17;63.59;100654.05;107929;1252;97706;-64
2023/04/11 09:41:46;;;;;;;11.60;6.30;;;;;;;12.06;64.08;100651.51;107959;1253;111285;-62
2023/04/11 09:44:15;;;;;;;10.90;6.20;;;;;;;11.98;65.17;100643.92;107669;1253;109368;-65
2023/04/11 09:46:57;;;;;;;11.60;6.40;;;;;;;11.86;66.50;100639.66;107565;1254;107557;-64
2023/04/11 09:49:26;;;;;;;11.00;6.20;;;;;;;11.71;67.33;100633.79;107562;1250;97951;-64
2023/04/11 09:51:56;;;;;;;12.80;5.80;;;;;;;11.60;68.48;100629.23;107555;1253;97877;-64
2023/04/11 09:54:27;;;;;;;9.00;5.50;;;;;;;11.47;69.54;100622.02;107633;1253;111295;-63
2023/04/11 09:56:57;;;;;;;7.90;5.20;;;;;;;11.32;70.08;100625.08;107604;1251;108675;-63
2023/04/11 09:59:26;;;;;;;10.20;5.70;;;;;;;11.22;70.54;100627.56;107680;1254;108678;-64
2023/04/11 10:01:56;;;;;;;9.70;5.70;;;;;;;11.18;70.88;100625.27;107667;1251;97808;-64
2023/04/11 10:04:26;;;;;;;10.20;5.90;;;;;;;11.16;71.32;100621.36;107685;1253;97695;-64
2023/04/11 10:07:13;;;;;;;13.20;5.50;;;;;;;11.14;71.95;100613.09;107630;1253;112245;-64
2023/04/11 10:09:44;;;;;;;11.40;5.60;;;;;;;11.08;72.40;100613.30;107688;1251;109457;-65
2023/04/11 10:12:28;;;;;;;12.10;6.20;;;;;;;11.04;73.82;100606.95;107577;1253;107164;-65
2023/04/11 10:14:57;;;;;;;8.60;4.70;;;;;;;10.97;74.13;100608.38;107567;1253;97805;-64
2023/04/11 10:17:26;;;;;;;8.00;4.60;;;;;;;10.91;75.31;100601.69;107762;1251;97951;-63
2023/04/11 10:19:58;;;;;;;9.20;4.90;;;;;;;10.85;74.94;100599.63;107552;1251;112677;-64
2023/04/11 10:22:42;;;;;;;6.90;4.10;;;;;;;10.84;75.91;100595.02;107550;1253;109867;-65
2023/04/11 10:25:22;;;;;;;7.60;4.60;;;;;;;10.77;75.75;100594.00;107897;1253;108533;-63
2023/04/11 10:27:52;;;;;;;13.90;5.40;;;;;;;10.74;76.14;100596.88;107902;1253;98037;-64
2023/04/11 10:30:39;;;;;;;14.40;5.00;;;;;;;10.74;76.19;100593.98;107969;1251;98350;-64
2023/04/11 10:33:16;;;;;;;12.80;4.50;;;;;;;10.71;76.73;100588.73;107916;1254;112237;-63
2023/04/11 10:36:05;;;;;;;10.10;5.40;;;;;;;10.67;77.10;100586.55;107555;1251;110883;-63
2023/04/11 10:38:42;;;;;;;10.90;5.10;;;;;;;10.61;77.59;100582.61;107589;1251;108240;-64
2023/04/11 10:41:26;;;;;;;10.80;6.20;;;;;;;10.54;78.20;100578.81;107930;1251;97806;-65
2023/04/11 10:44:19;;;;;;;11.00;5.40;;;;;;;10.47;78.79;100576.69;107934;1251;97710;-64
2023/04/11 10:46:52;;;;;;;9.10;6.30;;;;;;;10.44;79.08;100571.45;107944;1253;111413;-64
2023/04/11 10:49:36;;;;;;;12.70;5.70;;;;;;;10.44;79.11;100568.96;107963;1251;109715;-64
2023/04/11 10:52:23;;;;;;;12.10;6.10;;;;;;;10.43;79.83;100562.86;107906;1251;106549;-63
2023/04/11 10:54:53;;;;;;;11.70;6.50;;;;;;;10.40;80.14;100559.38;107927;1253;97688;-63
2023/04/11 10:57:21;;;;;;;11.70;6.20;;;;;;;10.37;80.36;100556.28;107931;1251;97906;-64
2023/04/11 10:59:50;;;;;;;9.30;6.30;;;;;;;10.35;80.91;100557.85;107711;1251;114150;-64
2023/04/11 11:02:20;;;;;;;10.10;6.10;;;;;;;10.33;80.98;100552.08;107668;1253;109630;-64
2023/04/11 11:04:50;;;;;;;10.50;5.70;;;;;;;10.32;81.01;100552.38;107638;1253;108612;-64
2023/04/11 11:07:18;;;;;;;14.80;7.10;;;;;;;10.31;81.29;100547.09;107632;1251;97797;-64
2023/04/11 11:09:49;;;;;;;12.40;7.00;;;;;;;10.28;81.24;100545.39;107645;1253;98344;-63
2023/04/11 11:12:18;;;;;;;11.90;6.10;;;;;;;10.28;81.17;100551.52;107583;1250;111285;-63
2023/04/11 11:14:47;;;;;;;14.60;7.10;;;;;;;10.24;81.45;100549.35;107628;1251;109833;-63
2023/04/11 11:17:16;;;;;;;12.10;5.90;;;;;;;10.24;81.91;100543.06;107544;1253;108171;-63
2023/04/11 11:19:49;;;;;;;10.20;6.60;;;;;;;10.24;82.23;100540.40;107512;1251;97829;-63
2023/04/11 11:22:25;;;;;;;11.60;6.80;;;;;;;10.25;82.06;100530.48;107647;1253;97847;-66
2023/04/11 11:24:53;;;;;;;19.00;6.90;;;;;;;10.26;82.12;100533.03;107791;1251;112162;-64